WMKJ/JHB METAR and TAF weather

Enter ICAO airport designator
Station Type Date Time Source
WMKJ METAR 2020/04/06 15:00 UTC NOAA

WMKJ 061500Z 00000KT 9999 FEW023 27/25 Q1012


Station Type Date Time Source
WMKJ Decoded METAR 2020/04/06 15:00 UTC NOAA

Johore Bharu / Senai, Malaysia (WMKJ) 01-38N 103-40E 40M
Apr 06, 2020 - 11:00 AM EDT / 2020.04.06 1500 UTC
Wind: Calm:0
Visibility: greater than 7 mile(s):0
Sky conditions: mostly clear
Temperature: 80 F (27 C)
Dew Point: 77 F (25 C)
Relative Humidity: 88%
Pressure (altimeter): 29.88 in. Hg (1012 hPa)
ob: WMKJ 061500Z 00000KT 9999 FEW023 27/25 Q1012
cycle: 15

Station Type Date Time Source
WMKJ TAF 2020/04/06 12:10 UTC NOAA

TAF WMKJ 061100Z 0612/0712 04006KT 9999 FEW017CB
BECMG 0614/0615 FEW018
TEMPO 0706/0710 04010KT 3000 TSRA FEW008 FEW016CB SCT018

Example: see airport list